Time;durP1;ratioP1;P1;durP2;ratioP2;P2;SDS_P1;SDS_P2;PMS_P1;PMS_P2;Temp;Humidity;BMP_temperature;BMP_pressure;BME280_temperature;BME280_humidity;BME280_pressure;Samples;Min_cycle;Max_cycle;Signal;HPM_P1;HPM_P2
2022/01/05 00:01:30;;;;;;;;;;;25.20;99.90;;;;;;5053556;28;19921;-74
2022/01/05 00:03:57;;;;;;;;;;;25.10;99.90;;;;;;5054025;28;19909;-71
2022/01/05 00:06:23;;;;;;;;;;;25.00;99.90;;;;;;5053437;28;19921;-74
2022/01/05 00:08:49;;;;;;;;;;;24.90;99.90;;;;;;5052749;28;20354;-74
2022/01/05 00:11:15;;;;;;;;;;;24.90;99.90;;;;;;5053827;28;19999;-76
2022/01/05 00:13:43;;;;;;;;;;;24.90;99.90;;;;;;5053156;28;19913;-74
2022/01/05 00:16:09;;;;;;;;;;;24.90;99.90;;;;;;5053631;28;19991;-75
2022/01/05 00:18:39;;;;;;;;;;;24.90;99.90;;;;;;5052959;28;20464;-77
2022/01/05 00:21:05;;;;;;;;;;;24.90;99.90;;;;;;5053805;28;19909;-72
2022/01/05 00:23:31;;;;;;;;;;;24.90;99.90;;;;;;5053473;28;19955;-76
2022/01/05 00:26:03;;;;;;;;;;;24.90;99.90;;;;;;5053182;28;20004;-74
2022/01/05 00:28:29;;;;;;;;;;;24.90;99.90;;;;;;5053289;28;19917;-76
2022/01/05 00:30:56;;;;;;;;;;;24.90;99.90;;;;;;5052270;28;20384;-76
2022/01/05 00:33:22;;;;;;;;;;;24.90;99.90;;;;;;5053650;28;19909;-74
2022/01/05 00:35:48;;;;;;;;;;;25.00;99.90;;;;;;5053765;28;20368;-73
2022/01/05 00:38:15;;;;;;;;;;;25.20;99.90;;;;;;5052820;28;19921;-74
2022/01/05 00:40:41;;;;;;;;;;;25.20;99.90;;;;;;5053420;28;19912;-73
2022/01/05 00:43:08;;;;;;;;;;;25.20;99.90;;;;;;5053399;28;20007;-74
2022/01/05 00:45:34;;;;;;;;;;;25.20;99.90;;;;;;5053424;28;20365;-74
2022/01/05 00:48:00;;;;;;;;;;;25.20;99.90;;;;;;5053648;28;19913;-73
2022/01/05 00:50:26;;;;;;;;;;;25.20;99.90;;;;;;5053786;28;19935;-72
2022/01/05 00:52:54;;;;;;;;;;;25.30;99.90;;;;;;5053485;28;19919;-72
2022/01/05 00:55:21;;;;;;;;;;;25.30;99.90;;;;;;5053596;28;19920;-73
2022/01/05 00:57:47;;;;;;;;;;;25.20;99.90;;;;;;5053500;28;19995;-77
2022/01/05 01:00:13;;;;;;;;;;;25.20;99.90;;;;;;5053042;28;19923;-76
2022/01/05 01:02:40;;;;;;;;;;;25.30;99.90;;;;;;5053358;28;19908;-74
2022/01/05 01:05:06;;;;;;;;;;;25.40;99.90;;;;;;5053688;28;19909;-75
2022/01/05 01:07:32;;;;;;;;;;;25.50;99.90;;;;;;5053254;28;19970;-74
2022/01/05 01:09:58;;;;;;;;;;;25.40;99.90;;;;;;5053138;28;19915;-74
2022/01/05 01:12:24;;;;;;;;;;;25.40;99.90;;;;;;5053079;28;19920;-76
2022/01/05 01:14:51;;;;;;;;;;;25.40;99.90;;;;;;5053411;28;19912;-74
2022/01/05 01:17:18;;;;;;;;;;;25.40;99.90;;;;;;5052821;28;20361;-74
2022/01/05 01:19:44;;;;;;;;;;;25.30;99.90;;;;;;5046717;28;19912;-74
2022/01/05 01:22:10;;;;;;;;;;;25.30;99.90;;;;;;5046445;28;20401;-74
2022/01/05 01:24:37;;;;;;;;;;;25.30;99.90;;;;;;5056752;28;19920;-73
2022/01/05 01:27:03;;;;;;;;;;;25.40;99.90;;;;;;5056535;28;19927;-74
2022/01/05 01:29:29;;;;;;;;;;;25.40;99.90;;;;;;5056366;28;19994;-74
2022/01/05 01:31:55;;;;;;;;;;;25.40;99.90;;;;;;5056411;28;19908;-74
2022/01/05 01:34:23;;;;;;;;;;;25.40;99.90;;;;;;5056208;28;19909;-78
2022/01/05 01:36:49;;;;;;;;;;;25.40;99.90;;;;;;5055903;28;19921;-73
2022/01/05 01:39:15;;;;;;;;;;;25.40;99.90;;;;;;5056642;28;19912;-73
2022/01/05 01:41:42;;;;;;;;;;;25.50;99.90;;;;;;5052100;28;19952;-73
2022/01/05 01:44:08;;;;;;;;;;;25.50;99.90;;;;;;5055903;28;19913;-72
2022/01/05 01:46:34;;;;;;;;;;;25.50;99.90;;;;;;5055029;28;19996;-73
2022/01/05 01:49:00;;;;;;;;;;;25.60;99.90;;;;;;5055850;28;19920;-72
2022/01/05 01:51:26;;;;;;;;;;;25.60;99.90;;;;;;5056488;28;19909;-74
2022/01/05 01:53:53;;;;;;;;;;;25.50;99.90;;;;;;5056049;28;19945;-70
2022/01/05 01:56:20;;;;;;;;;;;25.50;99.90;;;;;;5056368;28;19913;-77
2022/01/05 01:58:48;;;;;;;;;;;25.70;99.90;;;;;;5054872;28;20587;-74
2022/01/05 02:01:15;;;;;;;;;;;25.80;99.90;;;;;;5055877;28;19948;-73
2022/01/05 02:03:42;;;;;;;;;;;25.80;99.90;;;;;;5055487;28;20312;-74
2022/01/05 02:06:08;;;;;;;;;;;25.90;99.90;;;;;;5056037;28;19909;-76
2022/01/05 02:08:34;;;;;;;;;;;26.00;99.90;;;;;;5055371;28;19913;-75
2022/01/05 02:11:01;;;;;;;;;;;26.00;99.90;;;;;;5056196;28;19909;-77
2022/01/05 02:13:27;;;;;;;;;;;26.00;99.90;;;;;;5055470;28;19913;-74
2022/01/05 02:15:54;;;;;;;;;;;26.10;99.90;;;;;;5049521;28;19960;-75
2022/01/05 02:20:57;;;;;;;;;;;26.10;99.90;;;;;;5054882;28;19920;-75
2022/01/05 02:23:23;;;;;;;;;;;26.10;99.90;;;;;;5054981;28;19924;-76
2022/01/05 02:25:50;;;;;;;;;;;26.20;99.90;;;;;;5052091;28;20337;-76
2022/01/05 02:28:16;;;;;;;;;;;26.20;99.90;;;;;;5055169;28;20285;-74
2022/01/05 02:30:42;;;;;;;;;;;26.20;99.90;;;;;;5057430;28;19955;-76
2022/01/05 02:33:09;;;;;;;;;;;26.30;99.90;;;;;;5075783;28;19909;-79
2022/01/05 02:35:35;;;;;;;;;;;26.30;99.90;;;;;;5073808;28;20273;-79
2022/01/05 02:38:01;;;;;;;;;;;26.40;99.90;;;;;;5051015;28;19921;-83
2022/01/05 02:40:28;;;;;;;;;;;26.40;99.90;;;;;;5054358;28;20357;-79
2022/01/05 02:42:55;;;;;;;;;;;26.50;99.90;;;;;;5054687;28;20180;-78
2022/01/05 02:45:21;;;;;;;;;;;26.50;99.90;;;;;;5055463;28;19909;-78
2022/01/05 02:47:48;;;;;;;;;;;26.70;99.90;;;;;;5054940;28;20009;-76
2022/01/05 02:50:14;;;;;;;;;;;26.90;99.90;;;;;;5055039;28;20279;-78
2022/01/05 02:52:41;;;;;;;;;;;26.90;99.90;;;;;;5055007;28;19909;-76
2022/01/05 02:55:07;;;;;;;;;;;27.00;99.90;;;;;;5054879;28;19921;-77
2022/01/05 02:57:34;;;;;;;;;;;27.10;99.90;;;;;;5054842;28;19909;-75
2022/01/05 03:00:00;;;;;;;;;;;27.20;99.90;;;;;;5054950;28;20013;-77
2022/01/05 03:02:26;;;;;;;;;;;27.30;99.90;;;;;;5054994;28;19995;-74
2022/01/05 03:04:52;;;;;;;;;;;27.40;99.90;;;;;;5055137;28;19913;-77
2022/01/05 03:07:18;;;;;;;;;;;27.40;99.90;;;;;;5055098;28;19913;-77
2022/01/05 03:09:45;;;;;;;;;;;27.60;99.90;;;;;;5054962;28;19967;-79
2022/01/05 03:12:11;;;;;;;;;;;27.60;99.90;;;;;;5054900;28;19962;-78
2022/01/05 03:14:37;;;;;;;;;;;27.70;99.90;;;;;;5054826;28;19909;-79
2022/01/05 03:17:04;;;;;;;;;;;27.90;99.90;;;;;;5049398;28;19916;-78
2022/01/05 03:19:30;;;;;;;;;;;27.90;99.90;;;;;;5050457;28;20285;-78
2022/01/05 03:21:56;;;;;;;;;;;28.00;99.90;;;;;;5049653;28;20345;-77
2022/01/05 03:24:22;;;;;;;;;;;28.00;99.90;;;;;;5050926;28;19923;-74
2022/01/05 03:26:49;;;;;;;;;;;28.10;99.90;;;;;;5053520;28;19917;-75
2022/01/05 03:29:15;;;;;;;;;;;28.10;99.90;;;;;;5054322;28;20331;-78
2022/01/05 03:31:41;;;;;;;;;;;28.20;99.90;;;;;;5054282;28;19909;-75
2022/01/05 03:34:08;;;;;;;;;;;28.30;99.90;;;;;;5054463;28;19952;-74
2022/01/05 03:36:35;;;;;;;;;;;28.40;99.90;;;;;;5050769;28;19920;-75
2022/01/05 03:39:01;;;;;;;;;;;28.50;99.90;;;;;;5054194;28;20116;-75
2022/01/05 03:41:27;;;;;;;;;;;28.50;99.90;;;;;;5052987;28;19917;-76
2022/01/05 03:43:53;;;;;;;;;;;28.50;99.90;;;;;;5053650;28;19986;-74
2022/01/05 03:46:19;;;;;;;;;;;28.60;99.90;;;;;;5051813;28;19948;-78
2022/01/05 03:48:46;;;;;;;;;;;28.60;99.90;;;;;;5052686;28;19912;-78
2022/01/05 03:51:12;;;;;;;;;;;28.70;99.90;;;;;;5052346;28;20289;-74
2022/01/05 03:53:38;;;;;;;;;;;28.90;99.90;;;;;;5053737;28;19920;-73
2022/01/05 03:56:04;;;;;;;;;;;28.90;99.90;;;;;;5053215;28;19913;-76
2022/01/05 03:58:30;;;;;;;;;;;28.90;99.90;;;;;;5051516;28;19913;-76
2022/01/05 04:00:57;;;;;;;;;;;28.90;99.90;;;;;;5053135;28;20285;-77
2022/01/05 04:03:23;;;;;;;;;;;29.00;99.90;;;;;;5052963;28;19917;-79
2022/01/05 04:05:49;;;;;;;;;;;28.90;99.90;;;;;;5051965;28;20011;-75
2022/01/05 04:08:15;;;;;;;;;;;29.00;99.90;;;;;;5053886;28;20011;-74
2022/01/05 04:10:42;;;;;;;;;;;28.90;99.90;;;;;;5051732;28;19913;-76
2022/01/05 04:13:08;;;;;;;;;;;29.10;99.90;;;;;;5051943;28;19962;-74
2022/01/05 04:15:34;;;;;;;;;;;29.20;99.90;;;;;;5053140;28;19920;-74
2022/01/05 04:18:00;;;;;;;;;;;29.30;99.90;;;;;;5052482;28;19912;-79
2022/01/05 04:20:27;;;;;;;;;;;29.40;99.90;;;;;;5051806;28;20316;-79
2022/01/05 04:22:53;;;;;;;;;;;29.30;99.90;;;;;;5052647;28;19924;-76
2022/01/05 04:25:19;;;;;;;;;;;29.30;99.90;;;;;;5052297;28;19913;-76
2022/01/05 04:27:46;;;;;;;;;;;29.20;99.90;;;;;;5052894;28;19913;-79
2022/01/05 04:30:12;;;;;;;;;;;29.20;99.90;;;;;;5052683;28;19938;-74
2022/01/05 04:32:39;;;;;;;;;;;29.20;99.90;;;;;;5052685;28;20006;-75
2022/01/05 04:35:05;;;;;;;;;;;29.10;99.90;;;;;;5050959;28;20399;-77
2022/01/05 04:37:31;;;;;;;;;;;29.10;99.90;;;;;;5052123;28;19925;-76
2022/01/05 04:40:01;;;;;;;;;;;29.20;99.90;;;;;;5050391;28;19978;-72
2022/01/05 04:42:27;;;;;;;;;;;29.30;99.90;;;;;;5053084;28;19913;-67
2022/01/05 04:44:54;;;;;;;;;;;29.30;99.90;;;;;;5052521;28;19912;-73
2022/01/05 04:47:20;;;;;;;;;;;29.40;99.90;;;;;;5052693;28;20365;-72
2022/01/05 04:49:46;;;;;;;;;;;29.50;99.90;;;;;;5049232;28;19928;-74
2022/01/05 04:52:13;;;;;;;;;;;29.60;99.90;;;;;;5052484;28;19924;-75
2022/01/05 04:54:39;;;;;;;;;;;29.40;99.90;;;;;;5053821;28;19920;-75
2022/01/05 04:57:06;;;;;;;;;;;29.30;99.90;;;;;;5056161;28;20373;-72
2022/01/05 04:59:35;;;;;;;;;;;29.20;99.90;;;;;;5055838;28;19958;-74
2022/01/05 05:02:01;;;;;;;;;;;29.20;99.90;;;;;;5055800;28;19927;-74
2022/01/05 05:04:28;;;;;;;;;;;29.40;99.90;;;;;;5055596;28;19921;-78
2022/01/05 05:06:54;;;;;;;;;;;29.50;99.90;;;;;;5056022;28;20277;-71
2022/01/05 05:09:20;;;;;;;;;;;29.60;99.90;;;;;;5055449;28;19920;-72
2022/01/05 05:11:46;;;;;;;;;;;29.60;99.90;;;;;;5054921;28;19920;-72
2022/01/05 05:14:12;;;;;;;;;;;29.60;99.90;;;;;;5055518;28;19994;-72
2022/01/05 05:16:39;;;;;;;;;;;29.60;99.90;;;;;;5056031;28;19916;-74
2022/01/05 05:19:05;;;;;;;;;;;29.70;99.90;;;;;;5056014;28;19974;-74
2022/01/05 05:21:31;;;;;;;;;;;29.90;99.90;;;;;;5055896;28;19960;-73
2022/01/05 05:23:57;;;;;;;;;;;29.80;99.90;;;;;;5055630;28;19935;-71
2022/01/05 05:26:23;;;;;;;;;;;29.90;99.90;;;;;;5055689;28;19920;-72
2022/01/05 05:28:50;;;;;;;;;;;29.80;99.90;;;;;;5055870;28;19927;-74
2022/01/05 05:31:16;;;;;;;;;;;29.70;99.90;;;;;;5055233;28;19917;-72
2022/01/05 05:33:42;;;;;;;;;;;29.60;99.90;;;;;;5055381;28;19920;-72
2022/01/05 05:36:08;;;;;;;;;;;29.70;99.90;;;;;;5055851;28;19912;-76
2022/01/05 05:38:34;;;;;;;;;;;29.80;99.90;;;;;;5055244;28;19920;-73
2022/01/05 05:41:01;;;;;;;;;;;29.80;99.90;;;;;;5055617;28;19916;-72
2022/01/05 05:43:27;;;;;;;;;;;30.00;99.90;;;;;;5055654;28;20015;-73
2022/01/05 05:45:53;;;;;;;;;;;30.20;99.90;;;;;;5055585;28;19916;-74
2022/01/05 05:48:19;;;;;;;;;;;30.20;99.90;;;;;;5055651;28;20062;-77
2022/01/05 05:50:46;;;;;;;;;;;30.40;99.90;;;;;;5055109;28;20366;-77
2022/01/05 05:53:12;;;;;;;;;;;30.50;99.90;;;;;;5054976;28;19916;-74
2022/01/05 05:55:38;;;;;;;;;;;30.50;99.90;;;;;;5055160;28;19912;-78
2022/01/05 05:58:05;;;;;;;;;;;30.50;99.90;;;;;;5055421;28;19909;-74
2022/01/05 06:00:31;;;;;;;;;;;30.50;99.90;;;;;;5054858;28;20369;-74
2022/01/05 06:02:58;;;;;;;;;;;30.50;99.90;;;;;;5055598;28;20284;-73
2022/01/05 06:05:24;;;;;;;;;;;30.40;99.90;;;;;;5055502;28;20273;-73
2022/01/05 06:07:50;;;;;;;;;;;30.40;99.90;;;;;;5055437;28;19913;-74
2022/01/05 06:10:16;;;;;;;;;;;30.40;99.90;;;;;;5055282;28;19974;-74
2022/01/05 06:12:43;;;;;;;;;;;30.40;99.90;;;;;;5054720;28;19925;-74
2022/01/05 06:15:09;;;;;;;;;;;30.40;99.90;;;;;;5054750;28;19963;-73
2022/01/05 06:17:35;;;;;;;;;;;30.40;99.90;;;;;;5053159;28;19974;-72
2022/01/05 06:20:04;;;;;;;;;;;30.40;99.90;;;;;;5054430;28;19917;-72
2022/01/05 06:22:30;;;;;;;;;;;30.40;99.90;;;;;;5053824;28;19951;-74
2022/01/05 06:24:57;;;;;;;;;;;30.40;99.90;;;;;;5054955;28;19956;-71
2022/01/05 06:27:23;;;;;;;;;;;30.30;99.90;;;;;;5053243;28;19940;-75
2022/01/05 06:29:49;;;;;;;;;;;30.30;99.90;;;;;;5052880;28;19936;-74
2022/01/05 06:32:15;;;;;;;;;;;30.20;99.90;;;;;;5053523;28;19920;-73
2022/01/05 06:34:41;;;;;;;;;;;30.10;99.90;;;;;;5052937;28;19913;-71
2022/01/05 06:37:08;;;;;;;;;;;30.10;99.90;;;;;;5054128;28;19921;-72
2022/01/05 06:39:34;;;;;;;;;;;30.10;99.90;;;;;;5053909;28;19921;-74
2022/01/05 06:42:00;;;;;;;;;;;30.20;99.90;;;;;;5052247;28;19920;-71
2022/01/05 06:44:26;;;;;;;;;;;30.30;99.90;;;;;;5055170;28;19988;-73
2022/01/05 06:46:53;;;;;;;;;;;30.20;99.90;;;;;;5053660;28;19970;-72
2022/01/05 06:49:21;;;;;;;;;;;30.30;99.90;;;;;;5054813;28;20377;-71
2022/01/05 06:51:47;;;;;;;;;;;30.30;99.90;;;;;;5054327;28;19920;-73
2022/01/05 06:54:14;;;;;;;;;;;30.30;99.90;;;;;;5052427;28;19920;-76
2022/01/05 06:56:40;;;;;;;;;;;30.30;99.90;;;;;;5053884;28;19921;-75
2022/01/05 06:59:06;;;;;;;;;;;30.30;99.90;;;;;;5053351;28;20386;-76
2022/01/05 07:01:32;;;;;;;;;;;30.40;99.90;;;;;;5053293;28;19980;-75
2022/01/05 07:03:59;;;;;;;;;;;30.70;99.90;;;;;;5053824;28;20438;-74
2022/01/05 07:06:26;;;;;;;;;;;30.70;99.90;;;;;;5052910;28;19962;-70
2022/01/05 07:08:52;;;;;;;;;;;30.60;99.90;;;;;;5053299;28;20339;-72
2022/01/05 07:11:18;;;;;;;;;;;30.60;99.90;;;;;;5052467;28;19924;-70
2022/01/05 07:13:44;;;;;;;;;;;30.60;99.90;;;;;;5053677;28;20007;-70
2022/01/05 07:16:10;;;;;;;;;;;30.60;99.90;;;;;;5052758;28;20289;-69
2022/01/05 07:18:37;;;;;;;;;;;30.60;99.90;;;;;;5052401;28;19913;-70
2022/01/05 07:21:03;;;;;;;;;;;30.60;99.90;;;;;;5053292;28;20362;-74
2022/01/05 07:23:29;;;;;;;;;;;30.70;99.90;;;;;;5052990;28;19963;-70
2022/01/05 07:25:55;;;;;;;;;;;30.70;99.90;;;;;;5054224;28;19934;-70
2022/01/05 07:28:21;;;;;;;;;;;30.60;99.90;;;;;;5052815;28;19937;-70
2022/01/05 07:30:47;;;;;;;;;;;30.70;99.90;;;;;;5054743;28;19913;-69
2022/01/05 07:33:14;;;;;;;;;;;30.60;99.90;;;;;;5052914;28;19921;-70
2022/01/05 07:35:40;;;;;;;;;;;30.60;99.90;;;;;;5053447;28;19913;-70
2022/01/05 07:38:06;;;;;;;;;;;30.70;99.90;;;;;;5053508;28;19927;-71
2022/01/05 07:40:33;;;;;;;;;;;30.70;99.90;;;;;;5053495;28;20006;-74
2022/01/05 07:42:59;;;;;;;;;;;30.60;99.90;;;;;;5053380;28;19915;-74
2022/01/05 07:45:25;;;;;;;;;;;30.40;99.90;;;;;;5052683;28;19924;-74
2022/01/05 07:47:51;;;;;;;;;;;30.30;99.90;;;;;;5052978;28;19925;-72
2022/01/05 07:50:21;;;;;;;;;;;30.20;99.90;;;;;;5053658;28;19920;-72
2022/01/05 07:52:47;;;;;;;;;;;30.20;99.90;;;;;;5052000;28;20177;-73
2022/01/05 07:55:13;;;;;;;;;;;30.10;99.90;;;;;;5052738;28;19916;-71
2022/01/05 07:57:39;;;;;;;;;;;30.00;99.90;;;;;;5052786;28;20013;-71
2022/01/05 08:00:07;;;;;;;;;;;29.90;99.90;;;;;;5049334;28;19931;-70
2022/01/05 08:02:33;;;;;;;;;;;29.90;99.90;;;;;;5049836;28;20342;-72
2022/01/05 08:04:59;;;;;;;;;;;29.80;99.90;;;;;;5052045;28;19913;-69
2022/01/05 08:07:26;;;;;;;;;;;29.80;99.90;;;;;;5051401;28;19925;-69
2022/01/05 08:09:52;;;;;;;;;;;29.90;99.90;;;;;;5052195;28;19916;-71
2022/01/05 08:12:18;;;;;;;;;;;29.90;99.90;;;;;;5051932;28;20031;-70
2022/01/05 08:14:44;;;;;;;;;;;29.90;99.90;;;;;;5052475;28;19916;-70
2022/01/05 08:17:10;;;;;;;;;;;30.00;99.90;;;;;;5050854;28;19920;-70
2022/01/05 08:19:37;;;;;;;;;;;30.00;99.90;;;;;;5051632;28;19909;-69
2022/01/05 08:22:03;;;;;;;;;;;30.00;99.90;;;;;;5050381;28;20010;-69
2022/01/05 08:24:29;;;;;;;;;;;30.00;99.90;;;;;;5052564;28;19913;-69
2022/01/05 08:26:55;;;;;;;;;;;30.00;99.90;;;;;;5043086;28;19987;-70
2022/01/05 08:29:23;;;;;;;;;;;30.00;99.90;;;;;;5048171;28;20361;-69
2022/01/05 08:31:49;;;;;;;;;;;30.10;99.90;;;;;;5051827;28;20262;-69
2022/01/05 08:34:15;;;;;;;;;;;30.10;99.90;;;;;;5050309;28;19916;-70
2022/01/05 08:36:42;;;;;;;;;;;30.20;99.90;;;;;;5054358;28;19913;-69
2022/01/05 08:39:08;;;;;;;;;;;30.20;99.90;;;;;;5052840;28;19983;-73
2022/01/05 08:41:34;;;;;;;;;;;30.10;99.90;;;;;;5052334;28;19953;-70
2022/01/05 08:44:00;;;;;;;;;;;30.10;99.90;;;;;;5048201;28;19925;-70
2022/01/05 08:46:27;;;;;;;;;;;30.20;99.90;;;;;;5053127;28;19923;-74
2022/01/05 08:48:53;;;;;;;;;;;30.20;99.90;;;;;;5050831;28;20078;-71
2022/01/05 08:51:19;;;;;;;;;;;30.20;99.90;;;;;;5052912;28;19924;-69
2022/01/05 08:53:45;;;;;;;;;;;30.30;99.90;;;;;;5052464;28;19955;-71
2022/01/05 08:56:11;;;;;;;;;;;30.30;99.90;;;;;;5052856;28;19947;-69
2022/01/05 08:58:38;;;;;;;;;;;30.30;99.90;;;;;;5052024;28;19920;-69
2022/01/05 09:01:05;;;;;;;;;;;30.40;99.90;;;;;;5053550;28;20042;-73
2022/01/05 09:03:32;;;;;;;;;;;30.40;99.90;;;;;;5050429;28;19916;-71
2022/01/05 09:06:00;;;;;;;;;;;30.40;99.90;;;;;;5040922;28;19920;-69
2022/01/05 09:08:26;;;;;;;;;;;30.40;99.90;;;;;;5041963;28;19928;-70
2022/01/05 09:10:52;;;;;;;;;;;30.50;99.90;;;;;;5046258;28;19909;-68
2022/01/05 09:13:19;;;;;;;;;;;30.60;99.90;;;;;;5043819;28;20011;-75
2022/01/05 09:15:45;;;;;;;;;;;30.60;99.90;;;;;;5051836;28;19909;-74
2022/01/05 09:18:11;;;;;;;;;;;30.60;99.90;;;;;;5051963;28;20003;-71
2022/01/05 09:20:38;;;;;;;;;;;30.70;99.90;;;;;;5052087;28;19919;-72
2022/01/05 09:23:04;;;;;;;;;;;30.70;99.90;;;;;;5052769;28;20003;-71
2022/01/05 09:25:30;;;;;;;;;;;30.70;99.90;;;;;;5053113;28;19909;-71
2022/01/05 09:27:56;;;;;;;;;;;30.70;99.90;;;;;;5052807;28;19913;-71
2022/01/05 09:30:23;;;;;;;;;;;30.70;99.90;;;;;;5053158;28;19970;-69
2022/01/05 09:32:50;;;;;;;;;;;30.60;99.90;;;;;;5053218;28;19909;-69
2022/01/05 09:35:19;;;;;;;;;;;30.60;99.90;;;;;;5052719;28;19917;-70
2022/01/05 09:37:53;;;;;;;;;;;30.60;99.90;;;;;;5052727;28;19935;-70
2022/01/05 09:42:57;;;;;;;;;;;30.70;99.90;;;;;;5056289;28;20353;-69
2022/01/05 09:45:23;;;;;;;;;;;30.70;99.90;;;;;;5056480;28;19997;-71
2022/01/05 09:48:10;;;;;;;;;;;30.80;99.90;;;;;;5056320;28;19913;-75
2022/01/05 09:50:43;;;;;;;;;;;30.70;99.90;;;;;;5052103;28;19921;-73
2022/01/05 09:53:10;;;;;;;;;;;30.80;99.90;;;;;;5036952;28;19909;-72
2022/01/05 09:55:36;;;;;;;;;;;30.70;99.90;;;;;;5036418;28;19909;-72
2022/01/05 09:58:03;;;;;;;;;;;30.70;99.90;;;;;;5037867;28;20358;-71
2022/01/05 10:00:29;;;;;;;;;;;30.70;99.90;;;;;;5054493;28;20282;-73
2022/01/05 10:02:55;;;;;;;;;;;30.70;99.90;;;;;;5055923;28;19909;-74
2022/01/05 10:05:22;;;;;;;;;;;30.70;99.90;;;;;;5056058;28;20012;-74
2022/01/05 10:07:48;;;;;;;;;;;30.70;99.90;;;;;;5055760;28;19963;-73
2022/01/05 10:10:14;;;;;;;;;;;30.70;99.90;;;;;;5056090;28;20020;-69
2022/01/05 10:12:40;;;;;;;;;;;30.70;99.90;;;;;;5055791;28;19917;-73
2022/01/05 10:15:07;;;;;;;;;;;30.60;99.90;;;;;;5055285;28;19960;-71
2022/01/05 10:17:34;;;;;;;;;;;30.50;99.90;;;;;;5054775;28;20305;-71
2022/01/05 10:20:05;;;;;;;;;;;30.50;99.90;;;;;;5055434;28;20130;-74
2022/01/05 10:22:43;;;;;;;;;;;30.40;99.90;;;;;;5057949;28;20388;-72
2022/01/05 10:25:15;;;;;;;;;;;30.40;99.90;;;;;;5035940;28;19913;-73
2022/01/05 10:27:42;;;;;;;;;;;30.40;99.90;;;;;;5043524;28;19960;-75
2022/01/05 10:30:08;;;;;;;;;;;30.40;99.90;;;;;;5055198;28;20083;-75
2022/01/05 10:32:35;;;;;;;;;;;30.40;99.90;;;;;;5053917;28;19909;-67
2022/01/05 10:35:01;;;;;;;;;;;30.30;99.90;;;;;;5055752;28;19909;-74
2022/01/05 10:37:27;;;;;;;;;;;30.30;99.90;;;;;;5055269;28;19999;-73
2022/01/05 10:40:05;;;;;;;;;;;30.30;99.90;;;;;;5047656;28;19986;-70
2022/01/05 10:42:32;;;;;;;;;;;30.30;99.90;;;;;;5053054;28;20432;-70
2022/01/05 10:44:59;;;;;;;;;;;30.30;99.90;;;;;;5055036;28;19999;-73
2022/01/05 10:47:28;;;;;;;;;;;30.30;99.90;;;;;;5055267;28;19963;-69
2022/01/05 10:49:54;;;;;;;;;;;30.20;99.90;;;;;;5054921;28;19913;-70
2022/01/05 10:52:28;;;;;;;;;;;30.20;99.90;;;;;;5072303;28;20431;-72
2022/01/05 10:54:55;;;;;;;;;;;30.20;99.90;;;;;;5069937;28;20015;-72
2022/01/05 10:57:22;;;;;;;;;;;30.10;99.90;;;;;;5054895;28;19909;-71
2022/01/05 10:59:50;;;;;;;;;;;30.20;99.90;;;;;;5054861;28;19955;-73
2022/01/05 11:02:28;;;;;;;;;;;30.10;99.90;;;;;;5055170;28;19944;-70
2022/01/05 11:04:58;;;;;;;;;;;30.10;99.90;;;;;;5055092;28;19913;-71
2022/01/05 11:07:26;;;;;;;;;;;30.10;99.90;;;;;;5055042;28;19913;-73
2022/01/05 11:09:55;;;;;;;;;;;30.00;99.90;;;;;;5048423;28;19913;-69
2022/01/05 11:12:29;;;;;;;;;;;30.00;99.90;;;;;;5048404;28;20266;-74
2022/01/05 11:15:15;;;;;;;;;;;30.00;99.90;;;;;;5054511;28;19955;-72
2022/01/05 11:17:41;;;;;;;;;;;29.90;99.90;;;;;;5054581;28;20380;-72
2022/01/05 11:20:10;;;;;;;;;;;29.90;99.90;;;;;;5052583;28;19912;-68
2022/01/05 11:22:36;;;;;;;;;;;29.90;99.90;;;;;;5054625;28;19913;-70
2022/01/05 11:25:03;;;;;;;;;;;29.90;99.90;;;;;;5054556;28;20435;-72
2022/01/05 11:27:29;;;;;;;;;;;29.80;99.90;;;;;;5050575;28;19913;-71
2022/01/05 11:29:56;;;;;;;;;;;29.80;99.90;;;;;;5054126;28;19913;-70
2022/01/05 11:32:25;;;;;;;;;;;29.80;99.90;;;;;;5053065;28;19913;-70
2022/01/05 11:34:52;;;;;;;;;;;29.80;99.90;;;;;;5053377;28;19913;-70
2022/01/05 11:37:18;;;;;;;;;;;29.80;99.90;;;;;;5053709;28;20429;-71
2022/01/05 11:39:46;;;;;;;;;;;29.70;99.90;;;;;;5053907;28;20427;-70
2022/01/05 11:42:15;;;;;;;;;;;29.70;99.90;;;;;;5053960;28;19913;-73
2022/01/05 11:44:52;;;;;;;;;;;29.70;99.90;;;;;;5053335;28;20343;-72
2022/01/05 11:47:20;;;;;;;;;;;29.70;99.90;;;;;;5049461;28;19917;-70
2022/01/05 11:49:46;;;;;;;;;;;29.70;99.90;;;;;;5052155;28;19920;-71
2022/01/05 11:52:13;;;;;;;;;;;29.70;99.90;;;;;;5046325;28;19975;-69
2022/01/05 11:54:39;;;;;;;;;;;29.70;99.90;;;;;;5054273;28;20377;-70
2022/01/05 11:57:10;;;;;;;;;;;29.70;99.90;;;;;;5054050;28;19909;-73
2022/01/05 11:59:38;;;;;;;;;;;29.60;99.90;;;;;;5053838;28;20019;-74
2022/01/05 12:02:06;;;;;;;;;;;29.60;99.90;;;;;;5053458;28;19913;-71
2022/01/05 12:04:56;;;;;;;;;;;29.60;99.90;;;;;;5053350;28;20362;-70
2022/01/05 12:07:34;;;;;;;;;;;29.50;99.90;;;;;;5050148;28;19960;-70
2022/01/05 12:10:09;;;;;;;;;;;29.50;99.90;;;;;;5053193;28;19920;-71
2022/01/05 12:12:36;;;;;;;;;;;29.40;99.90;;;;;;5044735;28;19912;-70
2022/01/05 12:15:03;;;;;;;;;;;29.30;99.90;;;;;;5053496;28;19959;-71
2022/01/05 12:17:30;;;;;;;;;;;29.40;99.90;;;;;;5053438;28;20397;-70
2022/01/05 12:19:56;;;;;;;;;;;29.40;99.90;;;;;;5053948;28;19909;-74
2022/01/05 12:22:22;;;;;;;;;;;29.40;99.90;;;;;;5052671;28;19913;-69
2022/01/05 12:25:00;;;;;;;;;;;29.30;99.90;;;;;;5052710;28;19913;-69
2022/01/05 12:27:37;;;;;;;;;;;29.30;99.90;;;;;;5053820;28;19913;-72
2022/01/05 12:30:23;;;;;;;;;;;29.20;99.90;;;;;;5053239;28;20373;-69
2022/01/05 12:33:01;;;;;;;;;;;29.30;99.90;;;;;;5053113;28;19920;-70
2022/01/05 12:35:28;;;;;;;;;;;29.30;99.90;;;;;;5053043;28;20003;-71
2022/01/05 12:37:58;;;;;;;;;;;29.30;99.90;;;;;;5053251;28;19925;-74
2022/01/05 12:40:27;;;;;;;;;;;29.30;99.90;;;;;;5052676;28;19913;-74
2022/01/05 12:43:05;;;;;;;;;;;29.30;99.90;;;;;;5050331;28;19924;-73
2022/01/05 12:45:43;;;;;;;;;;;29.20;99.90;;;;;;5050222;28;20012;-73
2022/01/05 12:48:21;;;;;;;;;;;29.10;99.90;;;;;;5052546;28;19967;-69
2022/01/05 12:50:47;;;;;;;;;;;29.10;99.90;;;;;;5053404;28;20349;-75
2022/01/05 12:53:13;;;;;;;;;;;29.20;99.90;;;;;;5052768;28;19913;-71
2022/01/05 12:55:46;;;;;;;;;;;29.10;99.90;;;;;;5052711;28;19912;-73
2022/01/05 12:58:12;;;;;;;;;;;29.10;99.90;;;;;;5050904;28;19909;-70
2022/01/05 13:00:38;;;;;;;;;;;29.10;99.90;;;;;;5052698;28;19913;-70
2022/01/05 13:03:04;;;;;;;;;;;29.00;99.90;;;;;;5051817;28;20338;-76
2022/01/05 13:05:33;;;;;;;;;;;28.90;99.90;;;;;;5053020;28;19915;-74
2022/01/05 13:08:05;;;;;;;;;;;28.80;99.90;;;;;;5053015;28;19913;-72
2022/01/05 13:10:32;;;;;;;;;;;28.80;99.90;;;;;;5050579;28;19973;-75
2022/01/05 13:13:06;;;;;;;;;;;28.90;99.90;;;;;;5052357;28;19912;-76
2022/01/05 13:15:32;;;;;;;;;;;28.80;99.90;;;;;;5051081;28;19964;-74
2022/01/05 13:17:59;;;;;;;;;;;28.80;99.90;;;;;;5055884;28;19912;-74
2022/01/05 13:20:25;;;;;;;;;;;28.80;99.90;;;;;;5056143;28;19920;-71
2022/01/05 13:22:52;;;;;;;;;;;28.70;99.90;;;;;;5055826;28;19913;-72
2022/01/05 13:25:22;;;;;;;;;;;28.70;99.90;;;;;;5056106;28;19909;-73
2022/01/05 13:27:49;;;;;;;;;;;28.70;99.90;;;;;;5050729;28;19917;-73
2022/01/05 13:30:23;;;;;;;;;;;28.70;99.90;;;;;;5055446;28;19913;-76
2022/01/05 13:32:50;;;;;;;;;;;28.70;99.90;;;;;;5054648;28;19955;-74
2022/01/05 13:35:23;;;;;;;;;;;28.60;99.90;;;;;;5053980;28;19913;-81
2022/01/05 13:37:57;;;;;;;;;;;28.60;99.90;;;;;;5052116;28;19968;-82
2022/01/05 13:40:24;;;;;;;;;;;28.60;99.90;;;;;;5056602;28;19963;-75
2022/01/05 13:42:54;;;;;;;;;;;28.60;99.90;;;;;;5056323;28;19913;-73
2022/01/05 13:45:25;;;;;;;;;;;28.60;99.90;;;;;;5055568;28;19913;-77
2022/01/05 13:47:57;;;;;;;;;;;28.50;99.90;;;;;;5054444;28;19952;-73
2022/01/05 13:50:25;;;;;;;;;;;28.50;99.90;;;;;;5051293;28;19952;-72
2022/01/05 13:52:56;;;;;;;;;;;28.60;99.90;;;;;;5051559;28;19912;-72
2022/01/05 13:55:24;;;;;;;;;;;28.60;99.90;;;;;;5055079;28;20360;-73
2022/01/05 13:58:01;;;;;;;;;;;28.60;99.90;;;;;;5055424;28;20361;-71
2022/01/05 14:00:27;;;;;;;;;;;28.60;99.90;;;;;;5054612;28;19913;-72
2022/01/05 14:02:53;;;;;;;;;;;28.60;99.90;;;;;;5055313;28;19924;-74
2022/01/05 14:05:20;;;;;;;;;;;28.70;99.90;;;;;;5056162;28;19908;-72
2022/01/05 14:07:46;;;;;;;;;;;28.60;99.90;;;;;;5055910;28;19919;-75
2022/01/05 14:10:16;;;;;;;;;;;28.60;99.90;;;;;;5056130;28;19913;-70
2022/01/05 14:12:42;;;;;;;;;;;28.60;99.90;;;;;;5040260;28;19970;-75
2022/01/05 14:15:09;;;;;;;;;;;28.60;99.90;;;;;;5053011;28;19919;-74
2022/01/05 14:17:36;;;;;;;;;;;28.60;99.90;;;;;;5053676;28;19992;-70
2022/01/05 14:20:14;;;;;;;;;;;28.50;99.90;;;;;;5055878;28;19935;-69
2022/01/05 14:22:40;;;;;;;;;;;28.40;99.90;;;;;;5055276;28;20365;-71